createdAt,value
2018-05-19T00:00:44.732Z,980.52
2018-05-19T00:01:44.969Z,980.49
2018-05-19T00:02:45.209Z,980.50
2018-05-19T00:03:45.445Z,980.49
2018-05-19T00:04:45.683Z,980.50
2018-05-19T00:05:45.922Z,980.48
2018-05-19T00:06:46.158Z,980.52
2018-05-19T00:07:46.396Z,980.47
2018-05-19T00:08:46.634Z,980.50
2018-05-19T00:09:46.872Z,980.51
2018-05-19T00:10:47.108Z,980.53
2018-05-19T00:11:47.345Z,980.49
2018-05-19T00:12:47.598Z,980.54
2018-05-19T00:13:47.821Z,980.51
2018-05-19T00:14:48.058Z,980.50
2018-05-19T00:15:48.296Z,980.49
2018-05-19T00:16:48.534Z,980.49
2018-05-19T00:17:48.771Z,980.51
2018-05-19T00:18:49.007Z,980.47
2018-05-19T00:19:49.251Z,980.48
2018-05-19T00:20:49.481Z,980.54
2018-05-19T00:21:49.721Z,980.53
2018-05-19T00:22:49.956Z,980.49
2018-05-19T00:23:50.192Z,980.48
2018-05-19T00:24:50.430Z,980.47
2018-05-19T00:25:50.666Z,980.49
2018-05-19T00:26:50.903Z,980.48
2018-05-19T00:27:51.141Z,980.52
2018-05-19T00:28:51.379Z,980.50
2018-05-19T00:29:51.615Z,980.51
2018-05-19T00:30:51.851Z,980.53
2018-05-19T00:31:52.091Z,980.51
2018-05-19T00:32:52.327Z,980.54
2018-05-19T00:33:52.563Z,980.49
2018-05-19T00:34:52.800Z,980.55
2018-05-19T00:35:53.037Z,980.53
2018-05-19T00:36:53.275Z,980.53
2018-05-19T00:37:53.512Z,980.54
2018-05-19T00:38:53.750Z,980.51
2018-05-19T00:39:53.990Z,980.52
2018-05-19T00:40:54.223Z,980.53
2018-05-19T00:41:54.461Z,980.56
2018-05-19T00:42:54.698Z,980.54
2018-05-19T00:43:54.935Z,980.55
2018-05-19T00:44:55.172Z,980.56
2018-05-19T00:45:55.409Z,980.57
2018-05-19T00:46:55.647Z,980.57
2018-05-19T00:47:55.888Z,980.59
2018-05-19T00:48:56.122Z,980.60
2018-05-19T00:49:56.358Z,980.56
2018-05-19T00:50:56.594Z,980.59
2018-05-19T00:51:56.833Z,980.62
2018-05-19T00:52:57.070Z,980.57
2018-05-19T00:53:57.306Z,980.58
2018-05-19T00:54:57.543Z,980.58
2018-05-19T00:55:57.785Z,980.55
2018-05-19T00:56:58.017Z,980.57
2018-05-19T00:57:58.256Z,980.56
2018-05-19T00:58:58.493Z,980.52
2018-05-19T00:59:58.729Z,980.55
2018-05-19T01:00:58.969Z,980.54
2018-05-19T01:01:59.206Z,980.52
2018-05-19T01:02:59.442Z,980.47
2018-05-19T01:03:59.680Z,980.44
2018-05-19T01:04:59.919Z,980.43
2018-05-19T01:06:00.156Z,980.42
2018-05-19T01:07:00.394Z,980.41
2018-05-19T01:08:00.630Z,980.40
2018-05-19T01:09:00.867Z,980.40
2018-05-19T01:10:01.107Z,980.41
2018-05-19T01:11:01.347Z,980.38
2018-05-19T01:12:01.579Z,980.42
2018-05-19T01:13:01.817Z,980.38
2018-05-19T01:14:02.054Z,980.40
2018-05-19T01:15:02.293Z,980.41
2018-05-19T01:16:02.531Z,980.42
2018-05-19T01:17:02.771Z,980.41
2018-05-19T01:18:03.007Z,980.42
2018-05-19T01:19:03.242Z,980.45
2018-05-19T01:20:03.479Z,980.39
2018-05-19T01:21:03.716Z,980.38
2018-05-19T01:22:03.952Z,980.35
2018-05-19T01:23:04.191Z,980.35
2018-05-19T01:24:04.488Z,980.36
2018-05-19T01:25:04.665Z,980.39
2018-05-19T01:26:04.902Z,980.32
2018-05-19T01:27:05.140Z,980.33
2018-05-19T01:28:05.377Z,980.34
2018-05-19T01:29:05.615Z,980.32
2018-05-19T01:30:05.852Z,980.28
2018-05-19T01:31:06.090Z,980.31
2018-05-19T01:32:06.329Z,980.31
2018-05-19T01:33:06.567Z,980.31
2018-05-19T01:34:06.803Z,980.31
2018-05-19T01:35:07.042Z,980.28
2018-05-19T01:36:07.280Z,980.29
2018-05-19T01:37:07.519Z,980.28
2018-05-19T01:38:07.755Z,980.28
2018-05-19T01:39:07.992Z,980.26
2018-05-19T01:40:08.234Z,980.29
2018-05-19T01:41:08.467Z,980.26
2018-05-19T01:42:08.703Z,980.27
2018-05-19T01:43:08.942Z,980.27
2018-05-19T01:44:09.179Z,980.25
2018-05-19T01:45:09.416Z,980.27
2018-05-19T01:46:09.653Z,980.27
2018-05-19T01:47:09.892Z,980.29
2018-05-19T01:48:10.127Z,980.28
2018-05-19T01:49:10.364Z,980.22
2018-05-19T01:50:10.607Z,980.24
2018-05-19T01:51:10.846Z,980.25
2018-05-19T01:52:11.081Z,980.24
2018-05-19T01:53:11.321Z,980.21
2018-05-19T01:54:11.556Z,980.23
2018-05-19T01:55:11.793Z,980.25
2018-05-19T01:56:12.031Z,980.26
2018-05-19T01:57:12.269Z,980.24
2018-05-19T01:58:12.504Z,980.27
2018-05-19T01:59:12.741Z,980.30
2018-05-19T02:00:12.980Z,980.25
2018-05-19T02:01:13.216Z,980.27
2018-05-19T02:02:13.454Z,980.25
2018-05-19T02:03:13.691Z,980.23
2018-05-19T02:04:13.928Z,980.24
2018-05-19T02:05:14.166Z,980.21
2018-05-19T02:06:14.405Z,980.21
2018-05-19T02:07:14.640Z,980.20
2018-05-19T02:08:14.878Z,980.20
2018-05-19T02:09:15.114Z,980.25
2018-05-19T02:10:15.353Z,980.24
2018-05-19T02:11:15.591Z,980.23
2018-05-19T02:12:15.827Z,980.27
2018-05-19T02:13:16.064Z,980.26
2018-05-19T02:14:16.303Z,980.27
2018-05-19T02:15:16.542Z,980.25
2018-05-19T02:16:16.778Z,980.28
2018-05-19T02:17:17.015Z,980.23
2018-05-19T02:18:17.250Z,980.22
2018-05-19T02:19:17.488Z,980.23
2018-05-19T02:20:17.726Z,980.22
2018-05-19T02:21:17.963Z,980.20
2018-05-19T02:22:18.200Z,980.19
2018-05-19T02:23:18.438Z,980.19
2018-05-19T02:24:18.675Z,980.19
2018-05-19T02:25:18.913Z,980.17
2018-05-19T02:26:19.152Z,980.21
2018-05-19T02:27:19.387Z,980.15
2018-05-19T02:28:19.624Z,980.15
2018-05-19T02:29:19.862Z,980.16
2018-05-19T02:30:20.098Z,980.13
2018-05-19T02:31:20.336Z,980.12
2018-05-19T02:32:20.572Z,980.11
2018-05-19T02:33:20.809Z,980.11
2018-05-19T02:34:21.047Z,980.10
2018-05-19T02:35:21.285Z,980.08
2018-05-19T02:36:21.519Z,980.08
2018-05-19T02:37:21.758Z,980.08
2018-05-19T02:38:21.993Z,980.07
2018-05-19T02:39:22.227Z,980.06
2018-05-19T02:40:22.464Z,980.05
2018-05-19T02:41:22.704Z,980.05
2018-05-19T02:42:22.939Z,980.04
2018-05-19T02:43:23.175Z,980.08
2018-05-19T02:44:23.414Z,980.08
2018-05-19T02:45:23.653Z,980.10
2018-05-19T02:46:23.888Z,980.06
2018-05-19T02:47:24.128Z,980.05
2018-05-19T02:48:24.362Z,980.04
2018-05-19T02:49:24.599Z,980.04
2018-05-19T02:50:24.836Z,980.04
2018-05-19T02:51:25.072Z,980.02
2018-05-19T02:52:25.310Z,980.08
2018-05-19T02:53:25.548Z,980.11
2018-05-19T02:54:25.787Z,980.08
2018-05-19T02:55:26.023Z,980.08
2018-05-19T02:56:26.259Z,980.06
2018-05-19T02:57:26.497Z,980.10
2018-05-19T02:58:26.741Z,980.05
2018-05-19T02:59:26.972Z,980.08
2018-05-19T03:00:27.209Z,980.04
2018-05-19T03:01:27.447Z,980.07
2018-05-19T03:02:27.682Z,980.06
2018-05-19T03:03:27.925Z,980.06
2018-05-19T03:04:28.160Z,980.06
2018-05-19T03:05:28.393Z,980.06
2018-05-19T03:06:28.636Z,980.04
2018-05-19T03:07:28.868Z,980.07
2018-05-19T03:08:29.106Z,980.03
2018-05-19T03:09:29.340Z,980.05
2018-05-19T03:10:29.580Z,980.06
2018-05-19T03:11:29.818Z,980.04
2018-05-19T03:12:30.054Z,980.00
2018-05-19T03:13:30.299Z,980.01
2018-05-19T03:14:30.529Z,980.01
2018-05-19T03:15:30.765Z,980.01
2018-05-19T03:16:31.005Z,980.02
2018-05-19T03:17:31.239Z,980.02
2018-05-19T03:18:31.475Z,980.04
2018-05-19T03:19:31.713Z,980.06
2018-05-19T03:20:31.949Z,980.01
2018-05-19T03:21:32.186Z,980.03
2018-05-19T03:22:32.428Z,980.06
2018-05-19T03:23:32.665Z,980.00
2018-05-19T03:24:32.898Z,980.07
2018-05-19T03:25:33.139Z,980.06
2018-05-19T03:26:33.373Z,980.06
2018-05-19T03:27:33.612Z,980.03
2018-05-19T03:28:33.851Z,980.06
2018-05-19T03:29:34.087Z,980.08
2018-05-19T03:30:34.329Z,980.03
2018-05-19T03:31:34.562Z,980.09
2018-05-19T03:32:34.800Z,980.11
2018-05-19T03:33:35.040Z,980.09
2018-05-19T03:34:35.276Z,980.15
2018-05-19T03:35:35.515Z,980.11
2018-05-19T03:36:35.752Z,980.07
2018-05-19T03:37:35.989Z,980.10
2018-05-19T03:38:36.225Z,980.10
2018-05-19T03:39:36.464Z,980.08
2018-05-19T03:40:36.701Z,980.10
2018-05-19T03:41:36.941Z,980.08
2018-05-19T03:42:37.179Z,980.08
2018-05-19T03:43:37.418Z,980.14
2018-05-19T03:44:37.655Z,980.09
2018-05-19T03:45:37.896Z,980.07
2018-05-19T03:46:38.135Z,980.11
2018-05-19T03:47:38.375Z,980.13
2018-05-19T03:48:38.610Z,980.14
2018-05-19T03:49:38.849Z,980.18
2018-05-19T03:50:39.085Z,980.16
2018-05-19T03:51:39.323Z,980.17
2018-05-19T03:52:39.560Z,980.18
2018-05-19T03:53:39.798Z,980.19
2018-05-19T03:54:40.037Z,980.17
2018-05-19T03:55:40.273Z,980.20
2018-05-19T03:56:40.511Z,980.19
2018-05-19T03:57:40.754Z,980.24
2018-05-19T03:58:40.988Z,980.23
2018-05-19T03:59:41.226Z,980.20
2018-05-19T04:00:41.464Z,980.25
2018-05-19T04:01:41.702Z,980.23
2018-05-19T04:02:41.939Z,980.22
2018-05-19T04:03:42.177Z,980.24
2018-05-19T04:04:42.416Z,980.24
2018-05-19T04:05:42.657Z,980.25
2018-05-19T04:06:42.892Z,980.25
2018-05-19T04:07:43.131Z,980.26
2018-05-19T04:08:43.369Z,980.27
2018-05-19T04:09:43.607Z,980.27
2018-05-19T04:10:43.844Z,980.25
2018-05-19T04:11:44.084Z,980.31
2018-05-19T04:12:44.319Z,980.29
2018-05-19T04:13:44.557Z,980.34
2018-05-19T04:14:44.800Z,980.36
2018-05-19T04:15:45.032Z,980.35
2018-05-19T04:16:45.271Z,980.34
2018-05-19T04:17:45.509Z,980.33
2018-05-19T04:18:45.749Z,980.34
2018-05-19T04:19:45.989Z,980.31
2018-05-19T04:20:46.230Z,980.38
2018-05-19T04:21:46.464Z,980.37
2018-05-19T04:22:46.702Z,980.38
2018-05-19T04:23:46.941Z,980.40
2018-05-19T04:24:47.179Z,980.37
2018-05-19T04:25:47.417Z,980.38
2018-05-19T04:26:47.656Z,980.35
2018-05-19T04:27:47.894Z,980.40
2018-05-19T04:28:48.132Z,980.43
2018-05-19T04:29:48.370Z,980.40
2018-05-19T04:30:48.609Z,980.40
2018-05-19T04:31:48.849Z,980.44
2018-05-19T04:32:49.091Z,980.41
2018-05-19T04:33:49.325Z,980.47
2018-05-19T04:34:49.562Z,980.45
2018-05-19T04:35:49.801Z,980.43
2018-05-19T04:36:50.041Z,980.45
2018-05-19T04:37:50.277Z,980.48
2018-05-19T04:38:50.515Z,980.50
2018-05-19T04:39:50.754Z,980.45
2018-05-19T04:40:50.992Z,980.48
2018-05-19T04:41:51.229Z,980.50
2018-05-19T04:42:51.467Z,980.48
2018-05-19T04:43:51.707Z,980.49
2018-05-19T04:44:51.945Z,980.48
2018-05-19T04:45:52.182Z,980.49
2018-05-19T04:46:52.424Z,980.52
2018-05-19T04:47:52.658Z,980.49
2018-05-19T04:48:52.900Z,980.47
2018-05-19T04:49:53.138Z,980.50
2018-05-19T04:50:53.377Z,980.53
2018-05-19T04:51:53.613Z,980.52
2018-05-19T04:52:53.852Z,980.53
2018-05-19T04:53:54.091Z,980.54
2018-05-19T04:54:54.329Z,980.58
2018-05-19T04:55:54.568Z,980.55
2018-05-19T04:56:54.886Z,980.59
2018-05-19T04:57:55.047Z,980.57
2018-05-19T04:58:55.287Z,980.61
2018-05-19T04:59:55.524Z,980.57
2018-05-19T05:00:55.774Z,980.58
2018-05-19T05:01:56.002Z,980.60
2018-05-19T05:02:56.242Z,980.60
2018-05-19T05:03:56.534Z,980.58
2018-05-19T05:04:56.720Z,980.60
2018-05-19T05:05:56.959Z,980.61
2018-05-19T05:06:57.201Z,980.63
2018-05-19T05:07:57.438Z,980.64
2018-05-19T05:08:57.676Z,980.63
2018-05-19T05:09:57.913Z,980.67
2018-05-19T05:10:58.153Z,980.71
2018-05-19T05:11:58.392Z,980.70
2018-05-19T05:12:58.630Z,980.72
2018-05-19T05:13:58.886Z,980.72
2018-05-19T05:14:59.107Z,980.75
2018-05-19T05:15:59.345Z,980.75
2018-05-19T05:16:59.585Z,980.74
2018-05-19T05:17:59.825Z,980.76
2018-05-19T05:19:00.064Z,980.78
2018-05-19T05:20:00.303Z,980.77
2018-05-19T05:21:00.542Z,980.76
2018-05-19T05:22:00.782Z,980.79
2018-05-19T05:23:01.024Z,980.80
2018-05-19T05:24:01.262Z,980.80
2018-05-19T05:25:01.503Z,980.79
2018-05-19T05:26:01.741Z,980.77
2018-05-19T05:27:02.058Z,980.80
2018-05-19T05:28:02.220Z,980.82
2018-05-19T05:29:02.461Z,980.80
2018-05-19T05:30:02.714Z,980.79
2018-05-19T05:31:03.031Z,980.81
2018-05-19T05:32:03.444Z,980.83
2018-05-19T05:33:03.688Z,980.83
2018-05-19T05:34:03.971Z,980.79
2018-05-19T05:35:04.240Z,980.86
2018-05-19T05:36:04.555Z,980.85
2018-05-19T05:37:04.812Z,980.82
2018-05-19T05:38:05.196Z,980.88
2018-05-19T05:39:05.420Z,980.88
2018-05-19T05:40:05.651Z,980.93
2018-05-19T05:41:05.891Z,980.96
2018-05-19T05:42:06.133Z,980.94
2018-05-19T05:43:06.418Z,980.92
2018-05-19T05:44:06.610Z,980.94
2018-05-19T05:45:06.868Z,980.95
2018-05-19T05:46:07.099Z,981.03
2018-05-19T05:47:07.347Z,981.00
2018-05-19T05:48:07.583Z,981.04
2018-05-19T05:49:07.824Z,981.09
2018-05-19T05:50:08.085Z,981.11
2018-05-19T05:51:08.307Z,981.09
2018-05-19T05:52:08.551Z,981.09
2018-05-19T05:53:08.783Z,981.11
2018-05-19T05:54:09.030Z,981.11
2018-05-19T05:55:09.271Z,981.13
2018-05-19T05:56:09.512Z,981.15
2018-05-19T05:57:09.754Z,981.10
2018-05-19T05:58:10.002Z,981.11
2018-05-19T05:59:10.242Z,981.11
2018-05-19T06:00:10.481Z,981.17
2018-05-19T06:01:10.723Z,981.14
2018-05-19T06:02:10.963Z,981.16
2018-05-19T06:03:11.207Z,981.16
2018-05-19T06:04:11.446Z,981.16
2018-05-19T06:05:11.686Z,981.17
2018-05-19T06:06:11.935Z,981.15
2018-05-19T06:07:12.169Z,981.18
2018-05-19T06:08:12.411Z,981.22
2018-05-19T06:09:12.653Z,981.20
2018-05-19T06:10:12.893Z,981.23
2018-05-19T06:11:13.135Z,981.27
2018-05-19T06:12:13.450Z,981.28
2018-05-19T06:13:13.617Z,981.27
2018-05-19T06:14:13.857Z,981.29
2018-05-19T06:15:14.098Z,981.32
2018-05-19T06:16:14.339Z,981.34
2018-05-19T06:17:14.579Z,981.35
2018-05-19T06:18:14.823Z,981.36
2018-05-19T06:19:15.064Z,981.32
2018-05-19T06:20:15.305Z,981.35
2018-05-19T06:21:15.548Z,981.37
2018-05-19T06:22:15.789Z,981.37
2018-05-19T06:23:16.032Z,981.42
2018-05-19T06:24:16.274Z,981.40
2018-05-19T06:25:16.518Z,981.38
2018-05-19T06:26:16.755Z,981.39
2018-05-19T06:27:16.995Z,981.38
2018-05-19T06:28:17.239Z,981.43
2018-05-19T06:29:17.481Z,981.43
2018-05-19T06:30:17.724Z,981.41
2018-05-19T06:31:17.969Z,981.44
2018-05-19T06:32:18.208Z,981.44
2018-05-19T06:33:18.453Z,981.41
2018-05-19T06:34:18.696Z,981.43
2018-05-19T06:35:18.935Z,981.45
2018-05-19T06:36:19.212Z,981.45
2018-05-19T06:37:19.451Z,981.45
2018-05-19T06:38:19.691Z,981.41
2018-05-19T06:39:19.936Z,981.42
2018-05-19T06:40:20.179Z,981.42
2018-05-19T06:41:20.422Z,981.46
2018-05-19T06:42:20.666Z,981.45
2018-05-19T06:43:20.914Z,981.45
2018-05-19T06:44:21.152Z,981.48
2018-05-19T06:45:21.395Z,981.50
2018-05-19T06:46:21.642Z,981.47
2018-05-19T06:47:21.881Z,981.49
2018-05-19T06:48:22.186Z,981.48
2018-05-19T06:49:22.368Z,981.51
2018-05-19T06:50:22.613Z,981.50
2018-05-19T06:51:22.848Z,981.53
2018-05-19T06:52:23.104Z,981.53
2018-05-19T06:53:23.348Z,981.52
2018-05-19T06:54:23.589Z,981.56
2018-05-19T06:55:23.833Z,981.54
2018-05-19T06:56:24.075Z,981.52
2018-05-19T06:57:24.316Z,981.57
2018-05-19T06:58:24.560Z,981.57
2018-05-19T06:59:24.804Z,981.52
2018-05-19T07:00:25.048Z,981.55
2018-05-19T07:01:25.291Z,981.55
2018-05-19T07:02:25.534Z,981.50
2018-05-19T07:03:25.781Z,981.59
2018-05-19T07:04:26.025Z,981.59
2018-05-19T07:05:26.269Z,981.61
2018-05-19T07:06:26.514Z,981.62
2018-05-19T07:07:26.755Z,981.58
2018-05-19T07:08:26.999Z,981.59
2018-05-19T07:09:27.241Z,981.64
2018-05-19T07:10:27.485Z,981.59
2018-05-19T07:11:27.734Z,981.62
2018-05-19T07:12:27.975Z,981.63
2018-05-19T07:13:28.221Z,981.63
2018-05-19T07:14:28.464Z,981.65
2018-05-19T07:15:28.709Z,981.65
2018-05-19T07:16:28.957Z,981.71
2018-05-19T07:17:29.202Z,981.69
2018-05-19T07:18:29.447Z,981.70
2018-05-19T07:19:29.692Z,981.70
2018-05-19T07:20:29.937Z,981.72
2018-05-19T07:21:30.183Z,981.76
2018-05-19T07:22:30.428Z,981.71
2018-05-19T07:23:30.671Z,981.68
2018-05-19T07:24:30.919Z,981.73
2018-05-19T07:25:31.164Z,981.70
2018-05-19T07:26:31.443Z,981.73
2018-05-19T07:27:31.659Z,981.72
2018-05-19T07:28:31.904Z,981.70
2018-05-19T07:29:32.145Z,981.74
2018-05-19T07:30:32.392Z,981.75
2018-05-19T07:31:32.634Z,981.75
2018-05-19T07:32:32.879Z,981.78
2018-05-19T07:33:33.128Z,981.78
2018-05-19T07:34:33.371Z,981.80
2018-05-19T07:35:33.634Z,981.77
2018-05-19T07:36:33.860Z,981.79
2018-05-19T07:37:34.106Z,981.79
2018-05-19T07:38:34.351Z,981.81
2018-05-19T07:39:34.598Z,981.84
2018-05-19T07:40:34.854Z,981.88
2018-05-19T07:41:35.100Z,981.87
2018-05-19T07:42:35.352Z,981.90
2018-05-19T07:43:35.588Z,981.90
2018-05-19T07:44:35.912Z,981.91
2018-05-19T07:45:36.076Z,981.90
2018-05-19T07:46:36.323Z,981.93
2018-05-19T07:47:36.570Z,981.96
2018-05-19T07:48:36.816Z,981.96
2018-05-19T07:49:37.062Z,981.97
2018-05-19T07:50:37.309Z,981.95
2018-05-19T07:51:37.556Z,982.01
2018-05-19T07:52:37.801Z,981.99
2018-05-19T07:53:38.046Z,981.97
2018-05-19T07:54:38.292Z,981.97
2018-05-19T07:55:38.542Z,982.01
2018-05-19T07:56:38.786Z,982.01
2018-05-19T07:57:39.033Z,981.98
2018-05-19T07:58:39.277Z,982.00
2018-05-19T07:59:39.522Z,981.99
2018-05-19T08:00:39.771Z,982.02
2018-05-19T08:01:40.020Z,981.98
2018-05-19T08:02:40.292Z,981.97
2018-05-19T08:03:40.539Z,981.98
2018-05-19T08:04:40.787Z,981.95
2018-05-19T08:05:41.036Z,982.00
2018-05-19T08:06:41.283Z,982.02
2018-05-19T08:07:41.532Z,981.97
2018-05-19T08:08:41.782Z,982.01
2018-05-19T08:09:42.032Z,982.01
2018-05-19T08:10:42.282Z,982.04
2018-05-19T08:11:42.533Z,982.07
2018-05-19T08:12:42.783Z,981.97
2018-05-19T08:13:43.032Z,982.03
2018-05-19T08:14:43.286Z,982.05
2018-05-19T08:15:43.535Z,982.06
2018-05-19T08:16:43.787Z,982.11
2018-05-19T08:17:44.037Z,982.08
2018-05-19T08:18:44.287Z,982.04
2018-05-19T08:19:44.538Z,982.05
2018-05-19T08:20:44.788Z,982.02
2018-05-19T08:21:45.044Z,982.01
2018-05-19T08:22:45.297Z,982.04
2018-05-19T08:23:45.544Z,982.16
2018-05-19T08:24:45.798Z,982.16
2018-05-19T08:25:46.047Z,982.10
2018-05-19T08:26:46.298Z,982.11
2018-05-19T08:27:46.549Z,982.02
2018-05-19T08:28:46.800Z,981.98
2018-05-19T08:29:47.055Z,981.99
2018-05-19T08:30:47.304Z,981.98
2018-05-19T08:31:47.555Z,981.96
2018-05-19T08:32:47.809Z,981.99
2018-05-19T08:33:48.059Z,981.98
2018-05-19T08:34:48.312Z,982.02
2018-05-19T08:35:48.562Z,982.01
2018-05-19T08:36:48.813Z,981.99
2018-05-19T08:37:49.064Z,982.00
2018-05-19T08:38:49.316Z,981.98
2018-05-19T08:39:49.565Z,982.02
2018-05-19T08:40:49.824Z,982.00
2018-05-19T08:41:50.074Z,982.00
2018-05-19T08:42:50.328Z,981.99
2018-05-19T08:43:50.572Z,982.06
2018-05-19T08:44:50.820Z,982.07
2018-05-19T08:45:51.067Z,982.12
2018-05-19T08:46:51.312Z,982.08
2018-05-19T08:47:51.560Z,982.10
2018-05-19T08:48:51.809Z,982.09
2018-05-19T08:49:52.060Z,982.05
2018-05-19T08:50:52.308Z,982.05
2018-05-19T08:51:52.556Z,982.07
2018-05-19T08:52:52.807Z,982.07
2018-05-19T08:53:53.055Z,982.08
2018-05-19T08:54:53.304Z,982.10
2018-05-19T08:55:53.558Z,982.06
2018-05-19T08:56:53.801Z,982.10
2018-05-19T08:57:54.181Z,982.03
2018-05-19T08:58:54.430Z,982.10
2018-05-19T08:59:54.680Z,981.99
2018-05-19T09:00:54.930Z,982.10
2018-05-19T09:01:55.179Z,982.23
2018-05-19T09:02:55.429Z,982.16
2018-05-19T09:03:55.679Z,982.17
2018-05-19T09:04:55.928Z,982.11
2018-05-19T09:05:56.177Z,982.11
2018-05-19T09:06:56.426Z,982.11
2018-05-19T09:07:56.679Z,982.07
2018-05-19T09:08:56.928Z,982.11
2018-05-19T09:09:57.175Z,982.18
2018-05-19T09:10:57.425Z,982.30
2018-05-19T09:11:57.676Z,982.18
2018-05-19T09:12:57.925Z,982.31
2018-05-19T09:13:58.175Z,982.30
2018-05-19T09:14:58.424Z,982.21
2018-05-19T09:15:58.675Z,982.15
2018-05-19T09:16:58.923Z,982.14
2018-05-19T09:17:59.173Z,982.17
2018-05-19T09:18:59.424Z,982.13
2018-05-19T09:19:59.674Z,982.13
2018-05-19T09:20:59.928Z,982.12
2018-05-19T09:22:00.178Z,982.14
2018-05-19T09:23:00.427Z,982.14
2018-05-19T09:24:00.676Z,982.10
2018-05-19T09:25:00.926Z,982.13
2018-05-19T09:26:01.178Z,982.11
2018-05-19T09:27:01.428Z,982.15
2018-05-19T09:28:01.676Z,982.17
2018-05-19T09:29:01.929Z,982.17
2018-05-19T09:30:02.190Z,982.21
2018-05-19T09:31:02.431Z,982.21
2018-05-19T09:32:02.677Z,982.20
2018-05-19T09:33:02.924Z,982.17
2018-05-19T09:34:03.172Z,982.12
2018-05-19T09:35:03.421Z,982.17
2018-05-19T09:36:03.668Z,982.22
2018-05-19T09:37:03.917Z,982.26
2018-05-19T09:38:04.168Z,982.28
2018-05-19T09:39:04.422Z,982.18
2018-05-19T09:40:04.661Z,982.21
2018-05-19T09:41:04.911Z,982.24
2018-05-19T09:42:05.161Z,982.25
2018-05-19T09:43:05.408Z,982.28
2018-05-19T09:44:05.655Z,982.23
2018-05-19T09:45:05.906Z,982.21
2018-05-19T09:46:06.153Z,982.24
2018-05-19T09:47:06.402Z,982.22
2018-05-19T09:48:06.649Z,982.22
2018-05-19T09:49:06.899Z,982.37
2018-05-19T09:50:07.147Z,982.42
2018-05-19T09:51:07.399Z,982.33
2018-05-19T09:52:07.649Z,982.36
2018-05-19T09:53:07.961Z,982.32
2018-05-19T09:54:08.142Z,982.27
2018-05-19T09:55:08.389Z,982.25
2018-05-19T09:56:08.636Z,982.27
2018-05-19T09:57:08.888Z,982.24
2018-05-19T09:58:09.134Z,982.23
2018-05-19T09:59:09.383Z,982.25
2018-05-19T10:00:09.632Z,982.25
2018-05-19T10:01:09.880Z,982.25
2018-05-19T10:02:10.130Z,982.40
2018-05-19T10:03:10.377Z,982.45
2018-05-19T10:04:10.630Z,982.39
2018-05-19T10:05:10.969Z,982.45
2018-05-19T10:06:11.124Z,982.48
2018-05-19T10:07:11.372Z,982.60
2018-05-19T10:08:11.609Z,982.38
2018-05-19T10:09:11.879Z,982.31
2018-05-19T10:10:12.128Z,982.37
2018-05-19T10:11:12.378Z,982.38
2018-05-19T10:12:12.625Z,982.69
2018-05-19T10:13:12.876Z,982.36
2018-05-19T10:14:13.125Z,982.30
2018-05-19T10:15:13.373Z,982.34
2018-05-19T10:16:13.624Z,982.31
2018-05-19T10:17:13.907Z,982.30
2018-05-19T10:18:14.120Z,982.34
2018-05-19T10:19:14.365Z,982.34
2018-05-19T10:20:14.617Z,982.31
2018-05-19T10:21:14.864Z,982.29
2018-05-19T10:22:15.114Z,982.27
2018-05-19T10:23:15.363Z,982.25
2018-05-19T10:24:15.640Z,982.27
2018-05-19T10:25:15.861Z,982.26
2018-05-19T10:26:16.111Z,982.26
2018-05-19T10:27:16.359Z,982.31
2018-05-19T10:28:16.650Z,982.34
2018-05-19T10:29:16.855Z,982.38
2018-05-19T10:30:17.107Z,982.36
2018-05-19T10:31:17.353Z,982.32
2018-05-19T10:32:17.609Z,982.82
2018-05-19T10:33:17.851Z,982.35
2018-05-19T10:34:18.099Z,982.33
2018-05-19T10:35:18.351Z,982.61
2018-05-19T10:36:18.600Z,982.86
2018-05-19T10:37:18.850Z,982.73
2018-05-19T10:38:19.101Z,982.54
2018-05-19T10:39:19.352Z,982.46
2018-05-19T10:40:19.603Z,982.55
2018-05-19T10:41:19.852Z,982.51
2018-05-19T10:42:20.101Z,982.53
2018-05-19T10:43:20.351Z,982.46
2018-05-19T10:44:20.605Z,982.32
2018-05-19T10:45:20.845Z,982.30
2018-05-19T10:46:21.095Z,982.28
2018-05-19T10:47:21.348Z,982.21
2018-05-19T10:48:21.600Z,982.25
2018-05-19T10:49:21.847Z,982.20
2018-05-19T10:50:22.101Z,982.24
2018-05-19T10:51:22.350Z,982.31
2018-05-19T10:52:22.600Z,982.30
2018-05-19T10:53:22.850Z,982.23
2018-05-19T10:54:23.103Z,982.23
2018-05-19T10:55:23.351Z,982.22
2018-05-19T10:56:23.601Z,982.38
2018-05-19T10:57:23.854Z,982.45
2018-05-19T10:58:24.106Z,982.39
2018-05-19T10:59:24.357Z,982.47
2018-05-19T11:00:24.607Z,982.47
2018-05-19T11:01:24.856Z,982.47
2018-05-19T11:02:25.108Z,982.42
2018-05-19T11:03:25.359Z,982.43
2018-05-19T11:04:25.613Z,982.51
2018-05-19T11:05:25.863Z,982.53
2018-05-19T11:06:26.113Z,982.51
2018-05-19T11:07:26.364Z,982.50
2018-05-19T11:08:26.616Z,982.49
2018-05-19T11:09:26.865Z,982.47
2018-05-19T11:10:27.120Z,982.20
2018-05-19T11:11:27.374Z,982.29
2018-05-19T11:12:27.622Z,982.45
2018-05-19T11:13:27.878Z,982.47
2018-05-19T11:14:28.124Z,982.47
2018-05-19T11:15:28.374Z,982.45
2018-05-19T11:16:28.625Z,982.22
2018-05-19T11:17:28.876Z,982.27
2018-05-19T11:18:29.127Z,982.29
2018-05-19T11:19:29.374Z,982.29
2018-05-19T11:20:29.626Z,982.26
2018-05-19T11:21:29.874Z,982.32
2018-05-19T11:22:30.128Z,982.34
2018-05-19T11:23:30.373Z,982.27
2018-05-19T11:24:30.625Z,982.34
2018-05-19T11:25:30.879Z,982.35
2018-05-19T11:26:31.128Z,982.31
2018-05-19T11:27:31.378Z,982.34
2018-05-19T11:28:31.626Z,982.34
2018-05-19T11:29:31.881Z,982.37
2018-05-19T11:30:32.125Z,982.39
2018-05-19T11:31:32.378Z,982.37
2018-05-19T11:32:32.628Z,982.33
2018-05-19T11:33:32.881Z,982.29
2018-05-19T11:34:33.130Z,982.40
2018-05-19T11:35:33.381Z,982.39
2018-05-19T11:36:33.630Z,982.40
2018-05-19T11:37:33.880Z,982.38
2018-05-19T11:38:34.131Z,982.36
2018-05-19T11:39:34.383Z,982.36
2018-05-19T11:40:34.640Z,982.32
2018-05-19T11:41:34.925Z,982.30
2018-05-19T11:42:35.142Z,982.29
2018-05-19T11:43:35.389Z,982.35
2018-05-19T11:44:35.643Z,982.35
2018-05-19T11:45:35.892Z,982.34
2018-05-19T11:46:36.146Z,982.38
2018-05-19T11:47:36.397Z,982.38
2018-05-19T11:48:36.648Z,982.36
2018-05-19T11:49:36.901Z,982.36
2018-05-19T11:50:37.205Z,982.38
2018-05-19T11:51:37.403Z,982.37
2018-05-19T11:52:37.654Z,982.42
2018-05-19T11:53:37.920Z,982.38
2018-05-19T11:54:38.172Z,982.36
2018-05-19T11:55:38.423Z,982.42
2018-05-19T11:56:38.677Z,982.43
2018-05-19T11:57:38.934Z,982.34
2018-05-19T11:58:39.185Z,982.35
2018-05-19T11:59:39.434Z,982.32
2018-05-19T12:00:39.684Z,982.34
2018-05-19T12:01:39.936Z,982.32
2018-05-19T12:02:40.225Z,982.31
2018-05-19T12:03:40.442Z,982.38
2018-05-19T12:04:40.693Z,982.32
2018-05-19T12:05:40.998Z,982.32
2018-05-19T12:06:41.196Z,982.32
2018-05-19T12:07:41.447Z,982.33
2018-05-19T12:08:41.700Z,982.35
2018-05-19T12:09:41.952Z,982.29
2018-05-19T12:10:42.203Z,982.13
2018-05-19T12:11:42.455Z,982.19
2018-05-19T12:12:42.708Z,982.32
2018-05-19T12:13:42.960Z,982.34
2018-05-19T12:14:43.210Z,982.38
2018-05-19T12:15:43.462Z,982.35
2018-05-19T12:16:43.715Z,982.35
2018-05-19T12:17:43.966Z,982.30
2018-05-19T12:18:44.216Z,982.23
2018-05-19T12:19:44.466Z,982.13
2018-05-19T12:20:44.716Z,982.09
2018-05-19T12:21:44.971Z,982.22
2018-05-19T12:22:45.280Z,982.10
2018-05-19T12:23:45.475Z,982.05
2018-05-19T12:24:45.724Z,982.17
2018-05-19T12:25:45.976Z,982.08
2018-05-19T12:26:46.230Z,982.09
2018-05-19T12:27:46.482Z,982.28
2018-05-19T12:28:46.734Z,982.07
2018-05-19T12:29:46.986Z,982.01
2018-05-19T12:30:47.236Z,981.99
2018-05-19T12:31:47.496Z,982.08